createdAt,value
2018-01-08T00:00:46.489Z,86.52
2018-01-08T00:01:46.506Z,86.52
2018-01-08T00:02:46.558Z,87.09
2018-01-08T00:03:46.541Z,86.52
2018-01-08T00:04:46.542Z,86.43
2018-01-08T00:05:46.573Z,86.43
2018-01-08T00:06:46.572Z,86.9
2018-01-08T00:07:46.601Z,87.28
2018-01-08T00:08:46.609Z,86.9
2018-01-08T00:09:46.629Z,86.8
2018-01-08T00:10:46.650Z,87.09
2018-01-08T00:11:46.668Z,86.9
2018-01-08T00:12:46.671Z,86.9
2018-01-08T00:13:46.697Z,86.8
2018-01-08T00:14:46.709Z,86.43
2018-01-08T00:15:46.728Z,86.9
2018-01-08T00:16:46.739Z,86.9
2018-01-08T00:17:46.809Z,86.9
2018-01-08T00:18:46.531Z,86.9
2018-01-08T00:19:46.544Z,86.24
2018-01-08T00:20:46.552Z,86.43
2018-01-08T00:21:46.570Z,86.8
2018-01-08T00:22:46.589Z,86.8
2018-01-08T00:23:46.859Z,86.71
2018-01-08T00:24:46.618Z,86.8
2018-01-08T00:25:46.636Z,86.8
2018-01-08T00:26:46.913Z,86.9
2018-01-08T00:27:46.920Z,87.38
2018-01-08T00:28:46.941Z,87.09
2018-01-08T00:29:46.958Z,87.76
2018-01-08T00:30:46.719Z,87.38
2018-01-08T00:31:46.992Z,87.38
2018-01-08T00:32:47.023Z,87.66
2018-01-08T00:33:47.022Z,86.99
2018-01-08T00:34:47.088Z,87.28
2018-01-08T00:35:47.053Z,86.61
2018-01-08T00:36:46.820Z,86.8
2018-01-08T00:37:47.092Z,87.09
2018-01-08T00:38:47.104Z,86.99
2018-01-08T00:39:46.870Z,86.99
2018-01-08T00:40:47.138Z,87.47
2018-01-08T00:41:46.902Z,87.85
2018-01-08T00:42:47.225Z,87.81
2018-01-08T00:43:47.191Z,87.34
2018-01-08T00:44:46.954Z,87.43
2018-01-08T00:45:47.225Z,87.34
2018-01-08T00:46:47.239Z,87.38
2018-01-08T00:47:47.257Z,87.19
2018-01-08T00:48:47.019Z,87.34
2018-01-08T00:49:47.436Z,87.62
2018-01-08T00:50:47.306Z,87.14
2018-01-08T00:51:47.071Z,87.19
2018-01-08T00:52:47.339Z,87.85
2018-01-08T00:53:47.353Z,87.19
2018-01-08T00:54:47.375Z,87.47
2018-01-08T00:55:47.386Z,87.38
2018-01-08T00:56:47.152Z,86.61
2018-01-08T00:57:47.171Z,87.28
2018-01-08T00:58:47.440Z,86.61
2018-01-08T00:59:47.459Z,86.8
2018-01-08T01:00:47.217Z,86.99
2018-01-08T01:01:47.488Z,86.99
2018-01-08T01:02:47.503Z,86.8
2018-01-08T01:03:47.517Z,86.71
2018-01-08T01:04:47.636Z,86.8
2018-01-08T01:05:47.550Z,87.09
2018-01-08T01:06:47.570Z,86.71
2018-01-08T01:07:47.583Z,86.99
2018-01-08T01:08:47.602Z,86.9
2018-01-08T01:09:47.624Z,86.8
2018-01-08T01:10:47.381Z,86.9
2018-01-08T01:11:47.650Z,86.9
2018-01-08T01:12:47.418Z,86.99
2018-01-08T01:13:47.681Z,86.71
2018-01-08T01:14:47.699Z,86.71
2018-01-08T01:15:47.717Z,86.9
2018-01-08T01:16:47.732Z,86.8
2018-01-08T01:17:47.751Z,86.9
2018-01-08T01:18:47.514Z,86.99
2018-01-08T01:19:47.836Z,86.9
2018-01-08T01:20:47.805Z,86.61
2018-01-08T01:21:47.818Z,87.28
2018-01-08T01:22:47.832Z,87.28
2018-01-08T01:23:47.853Z,86.71
2018-01-08T01:24:47.882Z,87.09
2018-01-08T01:25:47.883Z,87.57
2018-01-08T01:26:47.905Z,86.8
2018-01-08T01:27:47.666Z,86.99
2018-01-08T01:28:47.936Z,86.8
2018-01-08T01:29:47.698Z,86.8
2018-01-08T01:30:47.969Z,86.8
2018-01-08T01:31:47.985Z,87.47
2018-01-08T01:32:47.998Z,86.8
2018-01-08T01:33:47.764Z,86.43
2018-01-08T01:34:48.109Z,86.8
2018-01-08T01:35:48.051Z,86.99
2018-01-08T01:36:48.091Z,86.9
2018-01-08T01:37:48.081Z,86.8
2018-01-08T01:38:48.098Z,86.9
2018-01-08T01:39:47.871Z,86.8
2018-01-08T01:40:47.880Z,86.9
2018-01-08T01:41:48.154Z,86.71
2018-01-08T01:42:48.166Z,86.61
2018-01-08T01:43:47.933Z,86.99
2018-01-08T01:44:48.298Z,87.09
2018-01-08T01:45:47.970Z,86.71
2018-01-08T01:46:47.980Z,86.9
2018-01-08T01:47:48.246Z,86.99
2018-01-08T01:48:48.265Z,86.99
2018-01-08T01:49:48.279Z,86.9
2018-01-08T01:50:48.294Z,86.99
2018-01-08T01:51:48.311Z,86.99
2018-01-08T01:52:48.327Z,86.8
2018-01-08T01:53:48.358Z,87.28
2018-01-08T01:54:48.106Z,87.28
2018-01-08T01:55:48.379Z,87.19
2018-01-08T01:56:48.396Z,86.99
2018-01-08T01:57:48.411Z,87.09
2018-01-08T01:58:48.429Z,86.61
2018-01-08T01:59:48.497Z,86.71
2018-01-08T02:00:48.459Z,86.24
2018-01-08T02:01:48.476Z,86.43
2018-01-08T02:02:48.490Z,86.05
2018-01-08T02:03:48.256Z,86.52
2018-01-08T02:04:48.524Z,86.33
2018-01-08T02:05:48.547Z,86.43
2018-01-08T02:06:48.307Z,86.05
2018-01-08T02:07:48.580Z,86.33
2018-01-08T02:08:48.592Z,86.05
2018-01-08T02:09:48.355Z,86.99
2018-01-08T02:10:48.373Z,86.71
2018-01-08T02:11:48.641Z,86.24
2018-01-08T02:12:48.407Z,86.05
2018-01-08T02:13:48.678Z,86.33
2018-01-08T02:14:48.746Z,85.95
2018-01-08T02:15:48.712Z,86.33
2018-01-08T02:16:48.723Z,86.43
2018-01-08T02:17:48.739Z,86.33
2018-01-08T02:18:48.506Z,86.43
2018-01-08T02:19:48.520Z,85.76
2018-01-08T02:20:48.536Z,86.24
2018-01-08T02:21:48.550Z,86.24
2018-01-08T02:22:48.567Z,86.52
2018-01-08T02:23:48.588Z,86.14
2018-01-08T02:24:48.860Z,86.43
2018-01-08T02:25:48.879Z,86.14
2018-01-08T02:26:48.890Z,86.14
2018-01-08T02:27:48.905Z,86.33
2018-01-08T02:28:48.922Z,86.33
2018-01-08T02:29:48.738Z,86.43
2018-01-08T02:30:48.703Z,86.05
2018-01-08T02:31:48.974Z,85.76
2018-01-08T02:32:48.990Z,85.86
2018-01-08T02:33:49.004Z,86.33
2018-01-08T02:34:48.769Z,86.05
2018-01-08T02:35:49.040Z,86.05
2018-01-08T02:36:48.802Z,86.24
2018-01-08T02:37:48.827Z,85.95
2018-01-08T02:38:49.087Z,85.19
2018-01-08T02:39:49.104Z,85.38
2018-01-08T02:40:49.130Z,85.47
2018-01-08T02:41:49.138Z,85.38
2018-01-08T02:42:49.158Z,85.76
2018-01-08T02:43:48.920Z,85.95
2018-01-08T02:44:48.986Z,86.14
2018-01-08T02:45:49.204Z,86.24
2018-01-08T02:46:49.224Z,86.52
2018-01-08T02:47:49.235Z,86.52
2018-01-08T02:48:49.255Z,85.86
2018-01-08T02:49:49.270Z,85.95
2018-01-08T02:50:49.285Z,85.86
2018-01-08T02:51:49.303Z,85.76
2018-01-08T02:52:49.323Z,85.66
2018-01-08T02:53:49.336Z,85.76
2018-01-08T02:54:49.358Z,86.33
2018-01-08T02:55:49.380Z,86.71
2018-01-08T02:56:49.136Z,86.71
2018-01-08T02:57:49.403Z,86.99
2018-01-08T02:58:49.171Z,87.14
2018-01-08T02:59:49.488Z,87.43
2018-01-08T03:00:49.454Z,87.81
2018-01-08T03:01:49.467Z,86.86
2018-01-08T03:02:49.485Z,86.8
2018-01-08T03:03:49.504Z,87.05
2018-01-08T03:04:49.571Z,87.71
2018-01-08T03:05:49.533Z,86.95
2018-01-08T03:06:49.552Z,87.14
2018-01-08T03:07:49.316Z,87.71
2018-01-08T03:08:49.586Z,87.14
2018-01-08T03:09:49.652Z,86.52
2018-01-08T03:10:49.618Z,86.61
2018-01-08T03:11:49.381Z,86.8
2018-01-08T03:12:49.399Z,86.43
2018-01-08T03:13:49.413Z,86.14
2018-01-08T03:14:49.783Z,86.33
2018-01-08T03:15:49.700Z,85.95
2018-01-08T03:16:49.718Z,86.33
2018-01-08T03:17:49.732Z,86.43
2018-01-08T03:18:49.752Z,86.33
2018-01-08T03:19:49.513Z,86.9
2018-01-08T03:20:49.782Z,86.52
2018-01-08T03:21:49.546Z,86.9
2018-01-08T03:22:49.817Z,86.61
2018-01-08T03:23:49.579Z,86.8
2018-01-08T03:24:49.900Z,86.33
2018-01-08T03:25:49.612Z,86.9
2018-01-08T03:26:49.629Z,86.33
2018-01-08T03:27:49.900Z,86.14
2018-01-08T03:28:49.911Z,86.05
2018-01-08T03:29:49.678Z,86.52
2018-01-08T03:30:49.949Z,86.33
2018-01-08T03:31:49.965Z,86.52
2018-01-08T03:32:49.979Z,85.95
2018-01-08T03:33:49.995Z,85.76
2018-01-08T03:34:50.018Z,86.14
2018-01-08T03:35:50.032Z,86.43
2018-01-08T03:36:50.049Z,86.33
2018-01-08T03:37:49.807Z,86.24
2018-01-08T03:38:49.825Z,86.33
2018-01-08T03:39:50.153Z,86.43
2018-01-08T03:40:50.111Z,86.43
2018-01-08T03:41:50.130Z,86.52
2018-01-08T03:42:50.143Z,86.05
2018-01-08T03:43:49.910Z,85.28
2018-01-08T03:44:49.924Z,85.95
2018-01-08T03:45:50.196Z,86.43
2018-01-08T03:46:49.956Z,86.33
2018-01-08T03:47:50.234Z,86.14
2018-01-08T03:48:50.240Z,86.05
2018-01-08T03:49:50.259Z,86.43
2018-01-08T03:50:50.279Z,85.76
2018-01-08T03:51:50.292Z,86.14
2018-01-08T03:52:50.315Z,86.24
2018-01-08T03:53:50.073Z,86.52
2018-01-08T03:54:50.408Z,86.33
2018-01-08T03:55:50.358Z,86.43
2018-01-08T03:56:50.379Z,85.76
2018-01-08T03:57:50.392Z,85.95
2018-01-08T03:58:50.408Z,86.24
2018-01-08T03:59:50.174Z,86.9
2018-01-08T04:00:50.440Z,86.24
2018-01-08T04:01:50.457Z,87.09
2018-01-08T04:02:50.219Z,86.24
2018-01-08T04:03:50.492Z,86.43
2018-01-08T04:04:50.264Z,86.71
2018-01-08T04:05:50.272Z,86.24
2018-01-08T04:06:50.291Z,86.61
2018-01-08T04:07:50.302Z,86.9
2018-01-08T04:08:50.570Z,86.99
2018-01-08T04:09:50.635Z,86.05
2018-01-08T04:10:50.346Z,86.43
2018-01-08T04:11:50.366Z,86.14
2018-01-08T04:12:50.631Z,85.86
2018-01-08T04:13:50.657Z,86.24
2018-01-08T04:14:50.674Z,86.05
2018-01-08T04:15:50.687Z,86.52
2018-01-08T04:16:50.700Z,86.71
2018-01-08T04:17:50.718Z,86.61
2018-01-08T04:18:50.736Z,86.71
2018-01-08T04:19:50.500Z,86.52
2018-01-08T04:20:50.770Z,86.8
2018-01-08T04:21:50.788Z,86.47
2018-01-08T04:22:50.799Z,87.43
2018-01-08T04:23:50.818Z,87.34
2018-01-08T04:24:50.885Z,87.52
2018-01-08T04:25:50.849Z,87.34
2018-01-08T04:26:50.613Z,87.14
2018-01-08T04:27:50.882Z,87.43
2018-01-08T04:28:50.897Z,86.86
2018-01-08T04:29:50.661Z,86.76
2018-01-08T04:30:50.939Z,87.05
2018-01-08T04:31:50.951Z,86.47
2018-01-08T04:32:50.962Z,86.95
2018-01-08T04:33:50.978Z,87.24
2018-01-08T04:34:50.742Z,86.57
2018-01-08T04:35:50.763Z,86.9
2018-01-08T04:36:50.772Z,86.33
2018-01-08T04:37:51.054Z,86.52
2018-01-08T04:38:50.809Z,86.71
2018-01-08T04:39:50.875Z,86.71
2018-01-08T04:40:51.093Z,86.86
2018-01-08T04:41:50.858Z,86.99
2018-01-08T04:42:51.127Z,86.86
2018-01-08T04:43:51.139Z,86.9
2018-01-08T04:44:51.157Z,86.86
2018-01-08T04:45:51.173Z,86.95
2018-01-08T04:46:51.190Z,87.05
2018-01-08T04:47:50.955Z,86.95
2018-01-08T04:48:51.222Z,86.76
2018-01-08T04:49:51.238Z,86.8
2018-01-08T04:50:51.252Z,86.86
2018-01-08T04:51:51.018Z,86.95
2018-01-08T04:52:51.288Z,86.8
2018-01-08T04:53:51.305Z,86.8
2018-01-08T04:54:51.322Z,86.61
2018-01-08T04:55:51.336Z,86.9
2018-01-08T04:56:51.353Z,86.61
2018-01-08T04:57:51.139Z,86.33
2018-01-08T04:58:51.434Z,86.43
2018-01-08T04:59:51.148Z,86.05
2018-01-08T05:00:51.418Z,86.76
2018-01-08T05:01:51.180Z,86.67
2018-01-08T05:02:51.197Z,86.57
2018-01-08T05:03:51.467Z,86.86
2018-01-08T05:04:51.226Z,86.86
2018-01-08T05:05:51.494Z,86.76
2018-01-08T05:06:51.262Z,86.9
2018-01-08T05:07:51.532Z,86.52
2018-01-08T05:08:51.547Z,86.33
2018-01-08T05:09:51.571Z,86.47
2018-01-08T05:10:51.330Z,86.95
2018-01-08T05:11:51.597Z,86.9
2018-01-08T05:12:51.361Z,86.95
2018-01-08T05:13:51.682Z,86.76
2018-01-08T05:14:51.647Z,86.57
2018-01-08T05:15:51.661Z,87.14
2018-01-08T05:16:51.679Z,86.57
2018-01-08T05:17:51.694Z,87.05
2018-01-08T05:18:51.712Z,86.86
2018-01-08T05:19:51.489Z,86.95
2018-01-08T05:20:51.494Z,86.76
2018-01-08T05:21:51.766Z,86.61
2018-01-08T05:22:51.528Z,86.8
2018-01-08T05:23:51.894Z,86.71
2018-01-08T05:24:51.808Z,86.52
2018-01-08T05:25:51.572Z,86.33
2018-01-08T05:26:51.841Z,86.05
2018-01-08T05:27:51.605Z,86.24
2018-01-08T05:28:51.672Z,85.76
2018-01-08T05:29:51.909Z,86.43
2018-01-08T05:30:51.904Z,85.76
2018-01-08T05:31:51.923Z,85.86
2018-01-08T05:32:52.027Z,86.52
2018-01-08T05:33:51.700Z,86
2018-01-08T05:34:51.762Z,86.33
2018-01-08T05:35:51.986Z,86.52
2018-01-08T05:36:51.752Z,86.24
2018-01-08T05:37:52.017Z,86.52
2018-01-08T05:38:51.784Z,86.14
2018-01-08T05:39:52.055Z,86.47
2018-01-08T05:40:52.072Z,86.29
2018-01-08T05:41:51.841Z,86.38
2018-01-08T05:42:52.100Z,86.86
2018-01-08T05:43:51.914Z,86.67
2018-01-08T05:44:52.132Z,86.67
2018-01-08T05:45:51.898Z,86.57
2018-01-08T05:46:52.203Z,86.86
2018-01-08T05:47:52.177Z,86.86
2018-01-08T05:48:52.196Z,86
2018-01-08T05:49:51.959Z,86.86
2018-01-08T05:50:52.229Z,86.57
2018-01-08T05:51:51.995Z,86.86
2018-01-08T05:52:52.011Z,86.95
2018-01-08T05:53:52.283Z,86.67
2018-01-08T05:54:52.297Z,86.76
2018-01-08T05:55:52.315Z,86.86
2018-01-08T05:56:52.076Z,86.76
2018-01-08T05:57:52.345Z,86.95
2018-01-08T05:58:52.158Z,87.14
2018-01-08T05:59:52.123Z,87.34
2018-01-08T06:00:52.397Z,87.52
2018-01-08T06:01:52.409Z,86.76
2018-01-08T06:02:52.425Z,86.86
2018-01-08T06:03:52.451Z,86.67
2018-01-08T06:04:52.205Z,87.14
2018-01-08T06:05:52.472Z,87.34
2018-01-08T06:06:52.489Z,86.67
2018-01-08T06:07:52.506Z,86.86
2018-01-08T06:08:52.521Z,87.14
2018-01-08T06:09:52.286Z,87.34
2018-01-08T06:10:52.586Z,87.34
2018-01-08T06:11:52.320Z,86.57
2018-01-08T06:12:52.333Z,86.76
2018-01-08T06:13:52.654Z,86.67
2018-01-08T06:14:52.624Z,86.57
2018-01-08T06:15:52.381Z,86.1
2018-01-08T06:16:52.649Z,86.86
2018-01-08T06:17:52.664Z,86.47
2018-01-08T06:18:52.689Z,86.86
2018-01-08T06:19:52.699Z,87.05
2018-01-08T06:20:52.462Z,87.14
2018-01-08T06:21:52.730Z,87.14
2018-01-08T06:22:52.495Z,87.52
2018-01-08T06:23:52.768Z,87.43
2018-01-08T06:24:52.781Z,87.43
2018-01-08T06:25:52.797Z,87.43
2018-01-08T06:26:52.816Z,87.34
2018-01-08T06:27:52.829Z,87.34
2018-01-08T06:28:52.896Z,87.14
2018-01-08T06:29:52.612Z,87.34
2018-01-08T06:30:52.624Z,87.24
2018-01-08T06:31:52.895Z,87.34
2018-01-08T06:32:52.952Z,87.67
2018-01-08T06:33:52.928Z,87.34
2018-01-08T06:34:53.095Z,87.62
2018-01-08T06:35:52.707Z,87.67
2018-01-08T06:36:52.976Z,87.38
2018-01-08T06:37:52.993Z,87.86
2018-01-08T06:38:53.005Z,87.34
2018-01-08T06:39:53.026Z,87.38
2018-01-08T06:40:53.040Z,87.57
2018-01-08T06:41:53.055Z,87.71
2018-01-08T06:42:53.070Z,87.14
2018-01-08T06:43:53.090Z,87.14
2018-01-08T06:44:53.154Z,86.95
2018-01-08T06:45:53.118Z,86.95
2018-01-08T06:46:53.140Z,86.76
2018-01-08T06:47:53.152Z,86.57
2018-01-08T06:48:53.169Z,86.57
2018-01-08T06:49:53.186Z,87.24
2018-01-08T06:50:53.199Z,87.43
2018-01-08T06:51:53.214Z,87.34
2018-01-08T06:52:53.233Z,87.71
2018-01-08T06:53:53.248Z,87.14
2018-01-08T06:54:53.012Z,86.47
2018-01-08T06:55:53.033Z,87.43
2018-01-08T06:56:53.299Z,86.76
2018-01-08T06:57:53.325Z,86.57
2018-01-08T06:58:53.331Z,86.47
2018-01-08T06:59:53.394Z,87.05
2018-01-08T07:00:53.362Z,86.67
2018-01-08T07:01:53.376Z,86.67
2018-01-08T07:02:53.391Z,86.95
2018-01-08T07:03:53.410Z,87.24
2018-01-08T07:04:53.431Z,87.52
2018-01-08T07:05:53.290Z,87.01
2018-01-08T07:06:53.457Z,86.95
2018-01-08T07:07:53.480Z,87.05
2018-01-08T07:08:53.493Z,87.24
2018-01-08T07:09:53.504Z,87.43
2018-01-08T07:10:53.523Z,87.14
2018-01-08T07:11:53.538Z,87.43
2018-01-08T07:12:53.300Z,87.24
2018-01-08T07:13:53.570Z,87.24
2018-01-08T07:14:53.590Z,87.29
2018-01-08T07:15:53.655Z,87.1
2018-01-08T07:16:53.364Z,87.34
2018-01-08T07:17:53.636Z,87.05
2018-01-08T07:18:53.649Z,86.76
2018-01-08T07:19:53.671Z,86.76
2018-01-08T07:20:53.428Z,86.76
2018-01-08T07:21:53.448Z,86.95
2018-01-08T07:22:53.718Z,86.47
2018-01-08T07:23:53.736Z,87.05
2018-01-08T07:24:53.749Z,86.76
2018-01-08T07:25:53.763Z,87.29
2018-01-08T07:26:53.781Z,87.52
2018-01-08T07:27:53.796Z,87.29
2018-01-08T07:28:53.561Z,87.43
2018-01-08T07:29:53.827Z,87.14
2018-01-08T07:30:53.896Z,87.24
2018-01-08T07:31:53.613Z,87.14
2018-01-08T07:32:53.877Z,86.76
2018-01-08T07:33:53.893Z,86.76
2018-01-08T07:34:53.910Z,87.24
2018-01-08T07:35:53.672Z,87.38
2018-01-08T07:36:53.941Z,86.67
2018-01-08T07:37:53.960Z,87.14
2018-01-08T07:38:53.720Z,87.05
2018-01-08T07:39:53.990Z,87.05
2018-01-08T07:40:53.752Z,87.1
2018-01-08T07:41:54.024Z,87.67
2018-01-08T07:42:54.035Z,87.48
2018-01-08T07:43:53.802Z,87.86
2018-01-08T07:44:54.071Z,87.95
2018-01-08T07:45:54.137Z,87.57
2018-01-08T07:46:53.852Z,87.38
2018-01-08T07:47:53.866Z,87.29
2018-01-08T07:48:54.137Z,87.43
2018-01-08T07:49:54.152Z,87.38
2018-01-08T07:50:53.914Z,87.29
2018-01-08T07:51:54.185Z,87.34
2018-01-08T07:52:54.202Z,87.43
2018-01-08T07:53:54.222Z,87.1
2018-01-08T07:54:53.997Z,87.1
2018-01-08T07:55:53.997Z,87.34
2018-01-08T07:56:54.267Z,86.76
2018-01-08T07:57:54.278Z,87.62
2018-01-08T07:58:54.292Z,87.38
2018-01-08T07:59:54.059Z,87.48
2018-01-08T08:00:54.378Z,87.38
2018-01-08T08:01:54.346Z,88.05
2018-01-08T08:02:54.363Z,87.86
2018-01-08T08:03:54.390Z,87.57
2018-01-08T08:04:54.396Z,87.38
2018-01-08T08:05:54.420Z,87.95
2018-01-08T08:06:54.427Z,88.34
2018-01-08T08:07:54.441Z,87.48
2018-01-08T08:08:54.463Z,87.67
2018-01-08T08:09:54.475Z,87.48
2018-01-08T08:10:54.493Z,87.86
2018-01-08T08:11:54.502Z,88.34
2018-01-08T08:12:54.520Z,87.95
2018-01-08T08:13:54.282Z,87.86
2018-01-08T08:14:54.298Z,87.29
2018-01-08T08:15:54.620Z,87.38
2018-01-08T08:16:54.588Z,87.43
2018-01-08T08:17:54.349Z,87.29
2018-01-08T08:18:54.616Z,87.48
2018-01-08T08:19:54.631Z,86.67
2018-01-08T08:20:54.649Z,86.86
2018-01-08T08:21:54.673Z,86.72
2018-01-08T08:22:54.683Z,86.95
2018-01-08T08:23:54.700Z,86.76
2018-01-08T08:24:54.460Z,86.72
2018-01-08T08:25:54.474Z,87.29
2018-01-08T08:26:54.749Z,86.72
2018-01-08T08:27:54.762Z,87.67
2018-01-08T08:28:54.774Z,87.29
2018-01-08T08:29:54.792Z,87.29
2018-01-08T08:30:54.703Z,87.48
2018-01-08T08:31:54.572Z,87.29
2018-01-08T08:32:54.882Z,87.1
2018-01-08T08:33:54.853Z,87.34
2018-01-08T08:34:54.611Z,87.48
2018-01-08T08:35:54.892Z,87.1
2018-01-08T08:36:54.641Z,87.29
2018-01-08T08:37:54.913Z,87.38
2018-01-08T08:38:54.924Z,87.1
2018-01-08T08:39:54.951Z,87.43
2018-01-08T08:40:54.969Z,86.76
2018-01-08T08:41:54.986Z,86.95
2018-01-08T08:42:55.000Z,86.86
2018-01-08T08:43:54.762Z,86.95
2018-01-08T08:44:54.778Z,86.29
2018-01-08T08:45:54.797Z,86.47
2018-01-08T08:46:55.062Z,86.29
2018-01-08T08:47:56.330Z,86.86
2018-01-08T08:48:54.842Z,86.67
2018-01-08T08:49:55.118Z,86.67
2018-01-08T08:50:55.126Z,87.05
2018-01-08T08:51:55.144Z,86.57
2018-01-08T08:52:55.162Z,86.86
2018-01-08T08:53:55.176Z,86.86
2018-01-08T08:54:55.197Z,86.67
2018-01-08T08:55:55.207Z,86.67
2018-01-08T08:56:54.973Z,86.57
2018-01-08T08:57:54.988Z,87.38
2018-01-08T08:58:55.003Z,86.95
2018-01-08T08:59:55.279Z,87.05
2018-01-08T09:00:55.053Z,86.86
2018-01-08T09:01:55.309Z,87.05
2018-01-08T09:02:55.320Z,86.95
2018-01-08T09:03:55.087Z,86.86
2018-01-08T09:04:55.353Z,86.76
2018-01-08T09:05:55.119Z,86.67
2018-01-08T09:06:55.386Z,87.01
2018-01-08T09:07:56.490Z,86.95
2018-01-08T09:08:55.171Z,87.57
2018-01-08T09:09:55.181Z,87.57
2018-01-08T09:10:55.451Z,87.29
2018-01-08T09:11:55.223Z,87.67
2018-01-08T09:12:55.484Z,87.57
2018-01-08T09:13:55.502Z,87.29
2018-01-08T09:14:55.522Z,87.67
2018-01-08T09:15:55.535Z,87.38
2018-01-08T09:16:55.552Z,87.67
2018-01-08T09:17:55.314Z,87.29
2018-01-08T09:18:55.581Z,87.19
2018-01-08T09:19:55.601Z,86.72
2018-01-08T09:20:55.616Z,86.95
2018-01-08T09:21:55.630Z,86.76
2018-01-08T09:22:55.404Z,86.95
2018-01-08T09:23:55.714Z,86.95
2018-01-08T09:24:55.682Z,86.67
2018-01-08T09:25:55.698Z,86.86
2018-01-08T09:26:55.462Z,86.47
2018-01-08T09:27:55.732Z,87.29
2018-01-08T09:28:55.748Z,87.57
2018-01-08T09:29:55.510Z,86.63
2018-01-08T09:30:55.777Z,86.76
2018-01-08T09:31:55.795Z,86.1
2018-01-08T09:32:55.561Z,87.05
2018-01-08T09:33:55.931Z,86.57
2018-01-08T09:34:55.847Z,86.76
2018-01-08T09:35:55.609Z,86.47
2018-01-08T09:36:55.895Z,85.81
2018-01-08T09:37:55.895Z,85.15
2018-01-08T09:38:55.710Z,85.24
2018-01-08T09:39:55.928Z,85.53
2018-01-08T09:40:55.694Z,86.1
2018-01-08T09:41:55.963Z,86.67
2018-01-08T09:42:55.980Z,86.38
2018-01-08T09:43:56.010Z,86.29
2018-01-08T09:44:56.019Z,86
2018-01-08T09:45:56.029Z,86
2018-01-08T09:46:56.060Z,86.29
2018-01-08T09:47:55.810Z,86.29
2018-01-08T09:48:55.833Z,85.62
2018-01-08T09:49:56.098Z,85.05
2018-01-08T09:50:56.136Z,85.24
2018-01-08T09:51:56.133Z,85.34
2018-01-08T09:52:55.899Z,85.62
2018-01-08T09:53:56.218Z,85.15
2018-01-08T09:54:56.179Z,85.53
2018-01-08T09:55:56.196Z,85.19
2018-01-08T09:56:56.214Z,84.33
2018-01-08T09:57:56.233Z,84.14
2018-01-08T09:58:56.247Z,83.86
2018-01-08T09:59:56.264Z,83.86
2018-01-08T10:00:56.335Z,83.19
2018-01-08T10:01:56.298Z,83.42
2018-01-08T10:02:56.313Z,83.42
2018-01-08T10:03:56.383Z,83.14
2018-01-08T10:04:56.095Z,83.14
2018-01-08T10:05:56.367Z,82.57
2018-01-08T10:06:56.130Z,82.95
2018-01-08T10:07:56.403Z,82.95
2018-01-08T10:08:56.223Z,82.95
2018-01-08T10:09:56.438Z,82.76
2018-01-08T10:10:56.202Z,83
2018-01-08T10:11:56.471Z,82.86
2018-01-08T10:12:56.491Z,83.14
2018-01-08T10:13:56.253Z,83.33
2018-01-08T10:14:56.274Z,82.76
2018-01-08T10:15:56.544Z,82.57
2018-01-08T10:16:56.310Z,82.95
2018-01-08T10:17:56.579Z,83.14
2018-01-08T10:18:56.341Z,82.86
2018-01-08T10:19:56.358Z,83.33
2018-01-08T10:20:56.632Z,83.52
2018-01-08T10:21:56.390Z,83.81
2018-01-08T10:22:56.664Z,83.71
2018-01-08T10:23:56.478Z,83.52
2018-01-08T10:24:56.697Z,83.42
2018-01-08T10:25:56.463Z,83.67
2018-01-08T10:26:56.732Z,83.67
2018-01-08T10:27:56.495Z,84.52
2018-01-08T10:28:56.765Z,84.52
2018-01-08T10:29:56.530Z,84.91
2018-01-08T10:30:56.801Z,84.33
2018-01-08T10:31:56.814Z,84.24
2018-01-08T10:32:56.836Z,84.33
2018-01-08T10:33:56.598Z,84.72
2018-01-08T10:34:56.869Z,85
2018-01-08T10:35:56.886Z,85
2018-01-08T10:36:56.902Z,84.81
2018-01-08T10:37:56.921Z,85
2018-01-08T10:38:56.985Z,85.38
2018-01-08T10:39:56.701Z,84.81
2018-01-08T10:40:56.717Z,84.91
2018-01-08T10:41:56.735Z,85
2018-01-08T10:42:56.749Z,84.81
2018-01-08T10:43:57.024Z,85.47
2018-01-08T10:44:57.038Z,85.62
2018-01-08T10:45:57.054Z,85.72
2018-01-08T10:46:57.086Z,85.62
2018-01-08T10:47:57.090Z,85.38
2018-01-08T10:48:57.109Z,85.28
2018-01-08T10:49:56.871Z,85.24
2018-01-08T10:50:57.142Z,85.53
2018-01-08T10:51:57.160Z,85.19
2018-01-08T10:52:56.922Z,85.43
2018-01-08T10:53:57.192Z,84.72
2018-01-08T10:54:57.006Z,84.62
2018-01-08T10:55:56.972Z,83.86
2018-01-08T10:56:57.248Z,83.58
2018-01-08T10:57:57.262Z,83.39
2018-01-08T10:58:57.276Z,83.29
2018-01-08T10:59:57.300Z,83.52
2018-01-08T11:00:57.058Z,83.04
2018-01-08T11:01:57.330Z,83.04
2018-01-08T11:02:57.346Z,83.19
2018-01-08T11:03:57.362Z,83.23
2018-01-08T11:04:57.178Z,82.24
2018-01-08T11:05:57.400Z,82.48
2018-01-08T11:06:57.418Z,82.67
2018-01-08T11:07:57.430Z,82.38
2018-01-08T11:08:57.451Z,81.9
2018-01-08T11:09:57.518Z,82.67
2018-01-08T11:10:57.230Z,82.67
2018-01-08T11:11:57.512Z,82.38
2018-01-08T11:12:57.278Z,82.86
2018-01-08T11:13:57.544Z,82.38
2018-01-08T11:14:57.306Z,82.28
2018-01-08T11:15:57.318Z,82.09
2018-01-08T11:16:57.646Z,81.9
2018-01-08T11:17:57.608Z,82.09
2018-01-08T11:18:57.622Z,82.09
2018-01-08T11:19:57.640Z,81.81
2018-01-08T11:20:57.407Z,81.56
2018-01-08T11:21:57.674Z,81.18
2018-01-08T11:22:57.695Z,80.8
2018-01-08T11:23:57.458Z,80.99
2018-01-08T11:24:57.780Z,81.28
2018-01-08T11:25:57.743Z,80.9
2018-01-08T11:26:57.764Z,80.8
2018-01-08T11:27:57.849Z,80.61
2018-01-08T11:28:57.796Z,81.28
2018-01-08T11:29:57.891Z,81.43
2018-01-08T11:30:57.582Z,81.62
2018-01-08T11:31:57.598Z,81.24
2018-01-08T11:32:57.617Z,82.09
2018-01-08T11:33:57.885Z,82.57
2018-01-08T11:34:57.907Z,82.57
2018-01-08T11:35:57.920Z,82.48
2018-01-08T11:36:57.942Z,82.28
2018-01-08T11:37:57.970Z,82.67
2018-01-08T11:38:57.719Z,82
2018-01-08T11:39:57.786Z,82
2018-01-08T11:40:58.005Z,81.62
2018-01-08T11:41:58.023Z,81.43
2018-01-08T11:42:58.041Z,80.71
2018-01-08T11:43:57.807Z,80.99
2018-01-08T11:44:57.825Z,80.42
2018-01-08T11:45:58.098Z,79.85
2018-01-08T11:46:57.859Z,79.75
2018-01-08T11:47:58.129Z,79.66
2018-01-08T11:48:58.151Z,80.33
2018-01-08T11:49:57.917Z,80.23
2018-01-08T11:50:58.183Z,80.71
2018-01-08T11:51:57.952Z,80.8
2018-01-08T11:52:58.254Z,81.09
2018-01-08T11:53:57.988Z,80.8
2018-01-08T11:54:58.054Z,80.33
2018-01-08T11:55:58.022Z,81.05
2018-01-08T11:56:58.294Z,80.99
2018-01-08T11:57:58.307Z,80.04
2018-01-08T11:58:58.326Z,80.04
2018-01-08T11:59:58.346Z,79.85
2018-01-08T12:00:58.113Z,79.66
2018-01-08T12:01:58.386Z,79.09
2018-01-08T12:02:58.401Z,79.38
2018-01-08T12:03:58.427Z,79.66
2018-01-08T12:04:58.184Z,79.57
2018-01-08T12:05:58.456Z,79.89
2018-01-08T12:06:58.472Z,79.13
2018-01-08T12:07:58.238Z,78.94
2018-01-08T12:08:58.509Z,79.13
2018-01-08T12:09:58.924Z,79.09
2018-01-08T12:10:58.291Z,79.38
2018-01-08T12:11:58.565Z,79.75
2018-01-08T12:12:58.329Z,79.94
2018-01-08T12:13:58.599Z,80.23
2018-01-08T12:14:58.620Z,79.85
2018-01-08T12:15:58.382Z,79.66
2018-01-08T12:16:58.653Z,80.04
2018-01-08T12:17:58.674Z,80.8
2018-01-08T12:18:58.686Z,81.18
2018-01-08T12:19:58.731Z,81.37
2018-01-08T12:20:58.724Z,81.76
2018-01-08T12:21:58.741Z,80.8
2018-01-08T12:22:58.814Z,81.09
2018-01-08T12:23:58.522Z,80.71
2018-01-08T12:24:58.877Z,80.9
2018-01-08T12:25:58.809Z,80.9
2018-01-08T12:26:58.834Z,80.23
2018-01-08T12:27:58.846Z,79.89
2018-01-08T12:28:58.613Z,80.36
2018-01-08T12:29:58.890Z,80.52
2018-01-08T12:30:58.898Z,80.71
2018-01-08T12:31:58.914Z,80.61
2018-01-08T12:32:58.933Z,80.99
2018-01-08T12:33:58.956Z,81.28
2018-01-08T12:34:58.716Z,81.37
2018-01-08T12:35:58.985Z,81.66
2018-01-08T12:36:59.004Z,80.71
2018-01-08T12:37:58.770Z,80.9
2018-01-08T12:38:58.790Z,81.18
2018-01-08T12:39:58.863Z,80.99
2018-01-08T12:40:58.828Z,81.76
2018-01-08T12:41:59.097Z,80.8
2018-01-08T12:42:59.118Z,81.56
2018-01-08T12:43:59.182Z,81.28
2018-01-08T12:44:59.176Z,81.56
2018-01-08T12:45:59.167Z,81.47
2018-01-08T12:46:58.935Z,81.47
2018-01-08T12:47:58.957Z,81.76
2018-01-08T12:48:59.225Z,82.04
2018-01-08T12:49:58.990Z,82.61
2018-01-08T12:50:59.260Z,82.04
2018-01-08T12:51:59.280Z,81.95
2018-01-08T12:52:59.045Z,81.85
2018-01-08T12:53:59.064Z,80.9
2018-01-08T12:54:59.391Z,80.27
2018-01-08T12:55:59.349Z,80.27
2018-01-08T12:56:59.375Z,80.99